Saturday, August 27, 2016
18:48 UTC
  |  Log In   |  Register Free
Airport Search:

Livermore Municipal Airport
(KLVK)

FAA data valid effective Jul 21 2016 - Sep 15 2016 (unless otherwise noted).

 
 
 
 
 
 
 
 
 
 
 
 
 
 
Current Aviation Weather for KLVK

Weather Summary


The most recent METAR observation for LVK was updated at: 12:53 UTC
METAR for LVK is not available. Closest METAR is for
METAR

METAR KLVK 271753Z VRB05KT 10SM FEW018 20/12 A3000 RMK AO2 SLP157 T02000117 10206 20161 53005

METAR KLVK 271653Z 26005KT 10SM FEW018 19/12 A2999 RMK AO2 SLP155 T01890117

METAR KLVK 271553Z 29005KT 10SM BKN017 17/11 A2999 RMK AO2 SLP153 T01670111

METAR KCCR 271753Z 25008G15KT 10SM CLR 21/11 A3000 RMK AO2 SLP145 T02110111 10211 20167 53004 TSNO

METAR KHAF 271835Z 19008KT 7SM OVC017 17/14 A3006 RMK AO2

METAR KHWD 271754Z VRB06KT 10SM OVC019 18/11 A3002 RMK AO2 SLP176 T01780106 10183 20172 53010

TAF for LVK is not available.
TAF

KLVK - TAF KLVK 271731Z 2718/2818 27009KT P6SM FEW021

KLVK - FM271900 30010KT P6SM SKC

KLVK - FM280400 29008KT P6SM SKC

KLVK - FM280900 29006KT P6SM SCT018

KLVK - FM281100 VRB04KT P6SM OVC015

KLVK - FM281700 VRB03KT P6SM FEW018 =

KOAK - TAF KOAK 271731Z 2718/2824 25006KT P6SM OVC019

KOAK - FM271900 26009KT P6SM SCT022

KOAK - TEMPO 2719/2720 BKN021

KOAK - FM272100 27012KT P6SM FEW020

KOAK - FM280400 30011KT P6SM SCT014

KOAK - FM280600 30006KT P6SM OVC012

KOAK - FM280900 VRB04KT P6SM OVC010

KOAK - FM281800 26008KT P6SM FEW014

KOAK - FM282100 29013KT P6SM SKC =

KSJC - TAF KSJC 271731Z 2718/2818 VRB03KT P6SM FEW012 FEW018 SCT021

KSJC - FM272000 30010KT P6SM FEW012 FEW022

KSJC - FM280400 30005KT P6SM SCT020

KSJC - FM280600 VRB04KT P6SM OVC015

KSJC - FM281200 VRB03KT P6SM OVC012

KSJC - FM281700 VRB02KT P6SM FEW014 =

KSFO - TAF KSFO 271731Z 2718/2824 VRB06KT P6SM BKN020

KSFO - FM271845 32007KT P6SM SCT022

KSFO - FM272100 28015KT P6SM FEW024

KSFO - FM280400 27010KT P6SM SCT016

KSFO - FM280800 25006KT P6SM OVC014

KSFO - FM281100 26005KT P6SM OVC012

KSFO - FM281800 VRB06KT P6SM FEW016

KSFO - FM282100 29016KT P6SM SKC =

KSCK - TAF KSCK 271720Z 2718/2818 30005KT P6SM SKC

KSCK - FM272300 31011KT P6SM SKC

KSCK - FM280600 34005KT P6SM SKC =

KSUU - TAF KSUU 271100Z 2711/2817 23012G18KT 9999 SKC QNH2984INS

KSUU - TEMPO 2711/2717 23015G25KT

KSUU - BECMG 2802/2803 23015G25KT 9999 FEW250 QNH2985INS TX27/2723Z TN13/2712Z =

GlobalAir.com is loading additional information.
 Current Weather at LVK
66.0 F° (18.9 C°)

West winds at 5.8 mph
Pressure:
29.99 in
Humidity:
63%
Wind:
West at 5.8 mph
Dew Point:
53.1 F° (11.7 C°)
Visibility:
10.00 mi
LVK NOAA Radar




Find All Airport Services Find A Hotel Find A Rental Car Find A Golf Course Find A Restaurant $100 Hamburger



Airport Weather Forecast for KLVK

Translated METAR for KLVK (1753 UTC)
METAR:
KLVK 271753Z Livermore Municipal, Livermore, CA (KLVK). Aug 27, 1753Z. Wind is variable at 5 knots, 10 statute miles visibility, Few clouds at 1,800 feet, Temperature 20°C, Dewpoint 12°C, Altimeter is 30.00. Remarks: automated station with precipitation discriminator sea level pressure 1015.7 hectopascals hourly temp 20.0°C dewpoint 11.7°C 6-hour max temp 20.6°C 6-hour min temp 16.1°C 3-hour atmospheric pressure decreasing or steady, then increasing; or increasing then increasing more rapidly by 0.5 hectopascals
Conditions at:
KLVK (Livermore Muni, CA) observed 1753 UTC 27 August 2016
Temperature:
66.0 F° (18.9 C°)
Dewpoint:
not reported - refer to area weather report
Pressure:
29.99 Hg
Winds:
not reported
Visibility:
10.00
Ceiling:
at least 12,000 feet AGL
Clouds:
not reported - refer to area weather report
Remarks:

Translated TAF for TAF for LVK is not available. Refer to local area forecast.
FBO's on the Field
FBO Company Facility Photos Services Transportation Aviation Fuel Prices: Prices include tax
Catering Weather Repair Courtesy Rental Type 100LL JetA JetA+ MOGAS 8087
 
Five Rivers Aviation

Currently rated 5 by 1 person
FS:Epic
Last Updated: Aug-11
Login to update fuel prices
SS:
Contact Five Rivers AviationMore FBO Information
 
Add another FBO Facility Photos Catering Weather Repair Courtesy Rental Type 100LL JetA JetA+ MOGAS 8087
Services Transportation Aviation Fuel Prices: Prices include tax


model-print
model-print
model-print
model-print